sensor_id;sensor_type;location;lat;lon;timestamp;P1;durP1;ratioP1;P2;durP2;ratioP2
70165;SDS011;57541;47.408;18.822;2023-03-21T00:00:05;16.15;;;10.23;;
70165;SDS011;57541;47.408;18.822;2023-03-21T00:00:37;17.60;;;11.02;;
70165;SDS011;57541;47.408;18.822;2023-03-21T00:01:09;15.73;;;9.98;;
70165;SDS011;57541;47.408;18.822;2023-03-21T00:01:42;16.67;;;10.90;;
70165;SDS011;57541;47.408;18.822;2023-03-21T00:02:14;17.55;;;11.38;;
70165;SDS011;57541;47.408;18.822;2023-03-21T00:02:47;17.38;;;11.25;;
70165;SDS011;57541;47.408;18.822;2023-03-21T00:03:19;19.50;;;10.98;;
70165;SDS011;57541;47.408;18.822;2023-03-21T00:03:50;17.52;;;11.20;;
70165;SDS011;57541;47.408;18.822;2023-03-21T00:04:23;17.17;;;10.75;;
70165;SDS011;57541;47.408;18.822;2023-03-21T00:05:01;17.65;;;10.68;;
70165;SDS011;57541;47.408;18.822;2023-03-21T00:05:45;18.25;;;11.18;;
70165;SDS011;57541;47.408;18.822;2023-03-21T00:06:20;16.85;;;10.57;;
70165;SDS011;57541;47.408;18.822;2023-03-21T00:06:53;16.98;;;11.20;;
70165;SDS011;57541;47.408;18.822;2023-03-21T00:07:24;16.35;;;11.32;;
70165;SDS011;57541;47.408;18.822;2023-03-21T00:07:56;16.98;;;10.80;;
70165;SDS011;57541;47.408;18.822;2023-03-21T00:08:30;17.45;;;10.90;;
70165;SDS011;57541;47.408;18.822;2023-03-21T00:09:02;14.23;;;10.25;;
70165;SDS011;57541;47.408;18.822;2023-03-21T00:09:34;15.77;;;10.80;;
70165;SDS011;57541;47.408;18.822;2023-03-21T00:10:05;17.30;;;10.90;;
70165;SDS011;57541;47.408;18.822;2023-03-21T00:10:55;17.08;;;11.13;;
70165;SDS011;57541;47.408;18.822;2023-03-21T00:11:28;17.83;;;11.05;;
70165;SDS011;57541;47.408;18.822;2023-03-21T00:11:59;17.45;;;10.25;;
70165;SDS011;57541;47.408;18.822;2023-03-21T00:12:32;16.52;;;10.98;;
70165;SDS011;57541;47.408;18.822;2023-03-21T00:13:07;15.85;;;10.75;;
70165;SDS011;57541;47.408;18.822;2023-03-21T00:13:39;18.42;;;10.82;;
70165;SDS011;57541;47.408;18.822;2023-03-21T00:14:13;18.20;;;11.65;;
70165;SDS011;57541;47.408;18.822;2023-03-21T00:14:49;16.92;;;11.18;;
70165;SDS011;57541;47.408;18.822;2023-03-21T00:15:20;18.63;;;12.13;;
70165;SDS011;57541;47.408;18.822;2023-03-21T00:16:13;19.88;;;12.23;;
70165;SDS011;57541;47.408;18.822;2023-03-21T00:16:53;19.30;;;11.60;;
70165;SDS011;57541;47.408;18.822;2023-03-21T00:17:24;18.95;;;11.82;;
70165;SDS011;57541;47.408;18.822;2023-03-21T00:18:02;19.25;;;11.85;;
70165;SDS011;57541;47.408;18.822;2023-03-21T00:18:34;18.75;;;11.88;;
70165;SDS011;57541;47.408;18.822;2023-03-21T00:19:07;18.13;;;11.65;;
70165;SDS011;57541;47.408;18.822;2023-03-21T00:19:40;17.33;;;11.93;;
70165;SDS011;57541;47.408;18.822;2023-03-21T00:20:12;19.42;;;11.98;;
70165;SDS011;57541;47.408;18.822;2023-03-21T00:20:54;17.40;;;11.77;;
70165;SDS011;57541;47.408;18.822;2023-03-21T00:21:48;17.15;;;11.35;;
70165;SDS011;57541;47.408;18.822;2023-03-21T00:22:37;16.42;;;10.52;;
70165;SDS011;57541;47.408;18.822;2023-03-21T00:23:09;18.10;;;10.95;;
70165;SDS011;57541;47.408;18.822;2023-03-21T00:23:41;17.83;;;10.70;;
70165;SDS011;57541;47.408;18.822;2023-03-21T00:24:13;18.85;;;11.02;;
70165;SDS011;57541;47.408;18.822;2023-03-21T00:24:45;17.85;;;10.80;;
70165;SDS011;57541;47.408;18.822;2023-03-21T00:25:16;18.35;;;11.60;;
70165;SDS011;57541;47.408;18.822;2023-03-21T00:25:48;16.23;;;10.35;;
70165;SDS011;57541;47.408;18.822;2023-03-21T00:26:20;15.68;;;9.77;;
70165;SDS011;57541;47.408;18.822;2023-03-21T00:26:52;17.45;;;10.95;;
70165;SDS011;57541;47.408;18.822;2023-03-21T00:27:30;17.10;;;11.05;;
70165;SDS011;57541;47.408;18.822;2023-03-21T00:28:24;17.75;;;10.48;;
70165;SDS011;57541;47.408;18.822;2023-03-21T00:28:56;17.13;;;10.45;;
70165;SDS011;57541;47.408;18.822;2023-03-21T00:29:28;17.42;;;10.57;;
70165;SDS011;57541;47.408;18.822;2023-03-21T00:30:00;16.85;;;11.38;;
70165;SDS011;57541;47.408;18.822;2023-03-21T00:30:31;18.73;;;11.25;;
70165;SDS011;57541;47.408;18.822;2023-03-21T00:31:03;17.45;;;11.05;;
70165;SDS011;57541;47.408;18.822;2023-03-21T00:31:36;19.48;;;11.40;;
70165;SDS011;57541;47.408;18.822;2023-03-21T00:32:07;17.67;;;11.30;;
70165;SDS011;57541;47.408;18.822;2023-03-21T00:32:39;16.52;;;10.88;;
70165;SDS011;57541;47.408;18.822;2023-03-21T00:33:26;17.25;;;11.73;;
70165;SDS011;57541;47.408;18.822;2023-03-21T00:33:58;17.15;;;11.02;;
70165;SDS011;57541;47.408;18.822;2023-03-21T00:34:30;17.33;;;11.02;;
70165;SDS011;57541;47.408;18.822;2023-03-21T00:35:18;16.55;;;10.98;;
70165;SDS011;57541;47.408;18.822;2023-03-21T00:36:11;16.30;;;10.25;;
70165;SDS011;57541;47.408;18.822;2023-03-21T00:36:44;18.13;;;11.15;;
70165;SDS011;57541;47.408;18.822;2023-03-21T00:37:15;16.45;;;10.32;;
70165;SDS011;57541;47.408;18.822;2023-03-21T00:37:49;16.90;;;10.70;;
70165;SDS011;57541;47.408;18.822;2023-03-21T00:38:21;19.60;;;11.25;;
70165;SDS011;57541;47.408;18.822;2023-03-21T00:38:53;15.32;;;10.65;;
70165;SDS011;57541;47.408;18.822;2023-03-21T00:39:25;17.38;;;10.95;;
70165;SDS011;57541;47.408;18.822;2023-03-21T00:39:57;16.42;;;11.20;;
70165;SDS011;57541;47.408;18.822;2023-03-21T00:40:29;16.63;;;11.05;;
70165;SDS011;57541;47.408;18.822;2023-03-21T00:41:11;16.40;;;10.32;;
70165;SDS011;57541;47.408;18.822;2023-03-21T00:42:05;15.70;;;10.40;;
70165;SDS011;57541;47.408;18.822;2023-03-21T00:42:36;17.40;;;10.30;;
70165;SDS011;57541;47.408;18.822;2023-03-21T00:43:08;15.25;;;10.18;;
70165;SDS011;57541;47.408;18.822;2023-03-21T00:43:42;16.27;;;10.35;;
70165;SDS011;57541;47.408;18.822;2023-03-21T00:44:13;15.82;;;10.20;;
70165;SDS011;57541;47.408;18.822;2023-03-21T00:44:46;15.32;;;10.52;;
70165;SDS011;57541;47.408;18.822;2023-03-21T00:45:17;16.95;;;11.05;;
70165;SDS011;57541;47.408;18.822;2023-03-21T00:45:49;17.08;;;10.85;;
70165;SDS011;57541;47.408;18.822;2023-03-21T00:46:21;19.60;;;11.70;;
70165;SDS011;57541;47.408;18.822;2023-03-21T00:46:57;16.77;;;10.40;;
70165;SDS011;57541;47.408;18.822;2023-03-21T00:47:38;16.40;;;11.05;;
70165;SDS011;57541;47.408;18.822;2023-03-21T00:48:10;17.92;;;11.15;;
70165;SDS011;57541;47.408;18.822;2023-03-21T00:48:42;17.35;;;10.88;;
70165;SDS011;57541;47.408;18.822;2023-03-21T00:49:13;16.77;;;10.65;;
70165;SDS011;57541;47.408;18.822;2023-03-21T00:49:45;18.98;;;11.35;;
70165;SDS011;57541;47.408;18.822;2023-03-21T00:50:17;17.33;;;10.80;;
70165;SDS011;57541;47.408;18.822;2023-03-21T00:50:49;18.02;;;10.75;;
70165;SDS011;57541;47.408;18.822;2023-03-21T00:51:22;16.00;;;10.32;;
70165;SDS011;57541;47.408;18.822;2023-03-21T00:51:57;18.08;;;10.63;;
70165;SDS011;57541;47.408;18.822;2023-03-21T00:52:52;18.63;;;10.98;;
70165;SDS011;57541;47.408;18.822;2023-03-21T00:53:24;17.67;;;10.15;;
70165;SDS011;57541;47.408;18.822;2023-03-21T00:53:56;18.90;;;10.93;;
70165;SDS011;57541;47.408;18.822;2023-03-21T00:54:29;17.42;;;10.95;;
70165;SDS011;57541;47.408;18.822;2023-03-21T00:55:00;17.50;;;10.63;;
70165;SDS011;57541;47.408;18.822;2023-03-21T00:55:32;15.40;;;10.73;;
70165;SDS011;57541;47.408;18.822;2023-03-21T00:56:04;15.93;;;10.57;;
70165;SDS011;57541;47.408;18.822;2023-03-21T00:56:36;16.80;;;11.02;;
70165;SDS011;57541;47.408;18.822;2023-03-21T00:57:07;17.05;;;10.95;;
70165;SDS011;57541;47.408;18.822;2023-03-21T00:57:39;17.20;;;10.50;;
70165;SDS011;57541;47.408;18.822;2023-03-21T00:58:14;16.60;;;10.70;;
70165;SDS011;57541;47.408;18.822;2023-03-21T00:58:46;16.05;;;10.48;;
70165;SDS011;57541;47.408;18.822;2023-03-21T00:59:18;18.35;;;10.07;;
70165;SDS011;57541;47.408;18.822;2023-03-21T00:59:50;18.17;;;10.32;;
70165;SDS011;57541;47.408;18.822;2023-03-21T01:00:22;15.15;;;10.93;;
70165;SDS011;57541;47.408;18.822;2023-03-21T01:00:53;17.48;;;10.85;;
70165;SDS011;57541;47.408;18.822;2023-03-21T01:01:25;16.88;;;9.90;;
70165;SDS011;57541;47.408;18.822;2023-03-21T01:02:02;19.20;;;9.80;;
70165;SDS011;57541;47.408;18.822;2023-03-21T01:02:37;16.60;;;9.93;;
70165;SDS011;57541;47.408;18.822;2023-03-21T01:03:15;16.45;;;10.27;;
70165;SDS011;57541;47.408;18.822;2023-03-21T01:03:55;17.88;;;9.88;;
70165;SDS011;57541;47.408;18.822;2023-03-21T01:04:34;16.27;;;9.95;;
70165;SDS011;57541;47.408;18.822;2023-03-21T01:05:08;17.35;;;10.25;;
70165;SDS011;57541;47.408;18.822;2023-03-21T01:05:43;14.15;;;8.80;;
70165;SDS011;57541;47.408;18.822;2023-03-21T01:06:36;18.35;;;10.25;;
70165;SDS011;57541;47.408;18.822;2023-03-21T01:07:11;15.32;;;10.07;;
70165;SDS011;57541;47.408;18.822;2023-03-21T01:07:42;17.40;;;10.35;;
70165;SDS011;57541;47.408;18.822;2023-03-21T01:08:15;19.15;;;10.55;;
70165;SDS011;57541;47.408;18.822;2023-03-21T01:08:58;16.52;;;9.63;;
70165;SDS011;57541;47.408;18.822;2023-03-21T01:09:30;15.70;;;9.77;;
70165;SDS011;57541;47.408;18.822;2023-03-21T01:10:01;17.17;;;10.80;;
70165;SDS011;57541;47.408;18.822;2023-03-21T01:10:36;17.20;;;10.60;;
70165;SDS011;57541;47.408;18.822;2023-03-21T01:11:10;15.88;;;10.20;;
70165;SDS011;57541;47.408;18.822;2023-03-21T01:11:44;15.73;;;9.95;;
70165;SDS011;57541;47.408;18.822;2023-03-21T01:12:16;17.42;;;10.32;;
70165;SDS011;57541;47.408;18.822;2023-03-21T01:12:48;15.70;;;10.20;;
70165;SDS011;57541;47.408;18.822;2023-03-21T01:13:20;15.73;;;9.85;;
70165;SDS011;57541;47.408;18.822;2023-03-21T01:13:53;15.80;;;9.85;;
70165;SDS011;57541;47.408;18.822;2023-03-21T01:14:45;15.55;;;10.10;;
70165;SDS011;57541;47.408;18.822;2023-03-21T01:15:17;15.20;;;10.15;;
70165;SDS011;57541;47.408;18.822;2023-03-21T01:15:50;17.33;;;10.43;;
70165;SDS011;57541;47.408;18.822;2023-03-21T01:16:23;14.43;;;9.70;;
70165;SDS011;57541;47.408;18.822;2023-03-21T01:16:55;16.50;;;10.05;;
70165;SDS011;57541;47.408;18.822;2023-03-21T01:17:27;15.13;;;10.20;;
70165;SDS011;57541;47.408;18.822;2023-03-21T01:17:59;15.88;;;10.02;;
70165;SDS011;57541;47.408;18.822;2023-03-21T01:18:31;17.02;;;10.20;;
70165;SDS011;57541;47.408;18.822;2023-03-21T01:19:06;16.38;;;10.23;;
70165;SDS011;57541;47.408;18.822;2023-03-21T01:19:52;15.27;;;9.80;;
70165;SDS011;57541;47.408;18.822;2023-03-21T01:20:24;15.95;;;10.20;;
70165;SDS011;57541;47.408;18.822;2023-03-21T01:20:57;15.02;;;9.75;;
70165;SDS011;57541;47.408;18.822;2023-03-21T01:21:29;14.23;;;9.45;;
70165;SDS011;57541;47.408;18.822;2023-03-21T01:22:02;15.82;;;10.05;;
70165;SDS011;57541;47.408;18.822;2023-03-21T01:22:33;16.10;;;10.15;;
70165;SDS011;57541;47.408;18.822;2023-03-21T01:23:06;17.02;;;10.02;;
70165;SDS011;57541;47.408;18.822;2023-03-21T01:23:39;16.98;;;9.88;;
70165;SDS011;57541;47.408;18.822;2023-03-21T01:24:12;15.43;;;10.07;;
70165;SDS011;57541;47.408;18.822;2023-03-21T01:24:44;14.38;;;9.65;;
70165;SDS011;57541;47.408;18.822;2023-03-21T01:25:33;18.88;;;9.65;;
70165;SDS011;57541;47.408;18.822;2023-03-21T01:26:05;16.02;;;9.73;;
70165;SDS011;57541;47.408;18.822;2023-03-21T01:26:38;15.25;;;9.88;;
70165;SDS011;57541;47.408;18.822;2023-03-21T01:27:09;14.45;;;9.50;;
70165;SDS011;57541;47.408;18.822;2023-03-21T01:27:41;16.02;;;10.30;;
70165;SDS011;57541;47.408;18.822;2023-03-21T01:28:13;15.68;;;10.02;;
70165;SDS011;57541;47.408;18.822;2023-03-21T01:28:45;14.02;;;9.00;;
70165;SDS011;57541;47.408;18.822;2023-03-21T01:29:17;15.13;;;9.70;;
70165;SDS011;57541;47.408;18.822;2023-03-21T01:29:49;16.45;;;9.52;;
70165;SDS011;57541;47.408;18.822;2023-03-21T01:30:20;14.02;;;9.88;;
70165;SDS011;57541;47.408;18.822;2023-03-21T01:30:55;16.90;;;9.90;;
70165;SDS011;57541;47.408;18.822;2023-03-21T01:31:27;14.63;;;9.55;;
70165;SDS011;57541;47.408;18.822;2023-03-21T01:31:58;15.57;;;9.30;;
70165;SDS011;57541;47.408;18.822;2023-03-21T01:32:30;16.88;;;9.35;;
70165;SDS011;57541;47.408;18.822;2023-03-21T01:33:02;15.05;;;9.65;;
70165;SDS011;57541;47.408;18.822;2023-03-21T01:33:34;18.45;;;9.52;;
70165;SDS011;57541;47.408;18.822;2023-03-21T01:34:06;15.00;;;9.55;;
70165;SDS011;57541;47.408;18.822;2023-03-21T01:34:37;14.38;;;9.57;;
70165;SDS011;57541;47.408;18.822;2023-03-21T01:35:09;15.52;;;10.00;;
70165;SDS011;57541;47.408;18.822;2023-03-21T01:35:41;14.52;;;9.90;;
70165;SDS011;57541;47.408;18.822;2023-03-21T01:36:25;15.00;;;9.25;;
70165;SDS011;57541;47.408;18.822;2023-03-21T01:36:57;14.05;;;9.30;;
70165;SDS011;57541;47.408;18.822;2023-03-21T01:37:29;15.52;;;10.05;;
70165;SDS011;57541;47.408;18.822;2023-03-21T01:38:00;13.75;;;9.63;;
70165;SDS011;57541;47.408;18.822;2023-03-21T01:38:32;14.68;;;9.50;;
70165;SDS011;57541;47.408;18.822;2023-03-21T01:39:04;16.38;;;9.50;;
70165;SDS011;57541;47.408;18.822;2023-03-21T01:39:37;15.02;;;9.98;;
70165;SDS011;57541;47.408;18.822;2023-03-21T01:41:01;14.45;;;9.35;;
70165;SDS011;57541;47.408;18.822;2023-03-21T01:41:44;13.98;;;9.05;;
70165;SDS011;57541;47.408;18.822;2023-03-21T01:42:15;14.13;;;9.85;;
70165;SDS011;57541;47.408;18.822;2023-03-21T01:42:47;13.85;;;9.60;;
70165;SDS011;57541;47.408;18.822;2023-03-21T01:43:55;18.67;;;10.48;;
70165;SDS011;57541;47.408;18.822;2023-03-21T01:44:27;14.93;;;9.73;;
70165;SDS011;57541;47.408;18.822;2023-03-21T01:45:01;16.75;;;10.20;;
70165;SDS011;57541;47.408;18.822;2023-03-21T01:46:47;15.45;;;9.35;;
70165;SDS011;57541;47.408;18.822;2023-03-21T01:47:40;14.68;;;9.45;;
70165;SDS011;57541;47.408;18.822;2023-03-21T01:48:12;15.70;;;9.93;;
70165;SDS011;57541;47.408;18.822;2023-03-21T01:48:44;16.35;;;9.68;;
70165;SDS011;57541;47.408;18.822;2023-03-21T01:49:22;18.27;;;9.52;;
70165;SDS011;57541;47.408;18.822;2023-03-21T01:50:04;17.15;;;9.88;;
70165;SDS011;57541;47.408;18.822;2023-03-21T01:50:36;16.00;;;9.75;;
70165;SDS011;57541;47.408;18.822;2023-03-21T01:51:10;17.48;;;10.45;;
70165;SDS011;57541;47.408;18.822;2023-03-21T01:51:45;17.35;;;10.45;;
70165;SDS011;57541;47.408;18.822;2023-03-21T01:52:33;15.00;;;10.20;;
70165;SDS011;57541;47.408;18.822;2023-03-21T01:53:09;16.40;;;10.23;;
70165;SDS011;57541;47.408;18.822;2023-03-21T01:53:41;15.80;;;9.75;;
70165;SDS011;57541;47.408;18.822;2023-03-21T01:54:14;17.10;;;10.43;;
70165;SDS011;57541;47.408;18.822;2023-03-21T01:54:55;15.25;;;10.20;;
70165;SDS011;57541;47.408;18.822;2023-03-21T01:55:28;14.63;;;10.27;;
70165;SDS011;57541;47.408;18.822;2023-03-21T01:56:02;15.35;;;10.15;;
70165;SDS011;57541;47.408;18.822;2023-03-21T01:56:41;15.15;;;9.75;;
70165;SDS011;57541;47.408;18.822;2023-03-21T01:57:21;16.45;;;9.73;;
70165;SDS011;57541;47.408;18.822;2023-03-21T01:58:15;17.85;;;9.88;;
70165;SDS011;57541;47.408;18.822;2023-03-21T01:58:49;19.15;;;10.75;;
70165;SDS011;57541;47.408;18.822;2023-03-21T01:59:26;15.32;;;9.70;;
70165;SDS011;57541;47.408;18.822;2023-03-21T02:00:04;15.30;;;9.80;;
70165;SDS011;57541;47.408;18.822;2023-03-21T02:00:43;16.30;;;9.93;;
70165;SDS011;57541;47.408;18.822;2023-03-21T02:01:17;15.85;;;10.98;;
70165;SDS011;57541;47.408;18.822;2023-03-21T02:01:53;17.20;;;10.00;;
70165;SDS011;57541;47.408;18.822;2023-03-21T02:02:29;17.33;;;9.90;;
70165;SDS011;57541;47.408;18.822;2023-03-21T02:03:02;16.48;;;10.23;;
70165;SDS011;57541;47.408;18.822;2023-03-21T02:03:49;15.52;;;10.20;;
70165;SDS011;57541;47.408;18.822;2023-03-21T02:04:22;16.00;;;9.90;;
70165;SDS011;57541;47.408;18.822;2023-03-21T02:04:58;16.83;;;10.40;;
70165;SDS011;57541;47.408;18.822;2023-03-21T02:05:39;17.83;;;10.73;;
70165;SDS011;57541;47.408;18.822;2023-03-21T02:06:32;20.90;;;10.65;;
70165;SDS011;57541;47.408;18.822;2023-03-21T02:07:14;17.02;;;10.02;;
70165;SDS011;57541;47.408;18.822;2023-03-21T02:07:49;15.88;;;9.90;;
70165;SDS011;57541;47.408;18.822;2023-03-21T02:08:23;19.05;;;10.52;;
70165;SDS011;57541;47.408;18.822;2023-03-21T02:09:10;19.92;;;10.70;;
70165;SDS011;57541;47.408;18.822;2023-03-21T02:09:45;17.77;;;10.85;;
70165;SDS011;57541;47.408;18.822;2023-03-21T02:10:21;14.60;;;9.82;;
70165;SDS011;57541;47.408;18.822;2023-03-21T02:10:52;16.50;;;10.88;;
70165;SDS011;57541;47.408;18.822;2023-03-21T02:11:24;17.35;;;11.15;;
70165;SDS011;57541;47.408;18.822;2023-03-21T02:11:57;21.08;;;11.07;;
70165;SDS011;57541;47.408;18.822;2023-03-21T02:12:30;16.95;;;10.75;;
70165;SDS011;57541;47.408;18.822;2023-03-21T02:13:03;17.65;;;10.13;;
70165;SDS011;57541;47.408;18.822;2023-03-21T02:13:39;17.95;;;10.88;;
70165;SDS011;57541;47.408;18.822;2023-03-21T02:14:12;17.55;;;10.68;;
70165;SDS011;57541;47.408;18.822;2023-03-21T02:14:58;16.90;;;10.52;;
70165;SDS011;57541;47.408;18.822;2023-03-21T02:15:30;17.15;;;10.13;;
70165;SDS011;57541;47.408;18.822;2023-03-21T02:16:08;16.17;;;10.50;;
70165;SDS011;57541;47.408;18.822;2023-03-21T02:24:17;17.25;;;9.98;;
70165;SDS011;57541;47.408;18.822;2023-03-21T02:27:20;19.30;;;10.18;;
70165;SDS011;57541;47.408;18.822;2023-03-21T02:27:55;15.27;;;9.65;;
70165;SDS011;57541;47.408;18.822;2023-03-21T02:29:31;17.92;;;9.90;;
70165;SDS011;57541;47.408;18.822;2023-03-21T02:32:25;15.70;;;9.98;;
70165;SDS011;57541;47.408;18.822;2023-03-21T02:37:28;13.68;;;9.07;;
70165;SDS011;57541;47.408;18.822;2023-03-21T02:39:28;15.65;;;9.50;;
70165;SDS011;57541;47.408;18.822;2023-03-21T02:40:14;16.42;;;9.18;;
70165;SDS011;57541;47.408;18.822;2023-03-21T02:42:24;16.90;;;9.82;;
70165;SDS011;57541;47.408;18.822;2023-03-21T02:44:09;15.30;;;9.30;;
70165;SDS011;57541;47.408;18.822;2023-03-21T02:44:53;15.88;;;9.88;;
70165;SDS011;57541;47.408;18.822;2023-03-21T02:45:48;16.20;;;9.68;;
70165;SDS011;57541;47.408;18.822;2023-03-21T02:46:27;16.13;;;10.00;;
70165;SDS011;57541;47.408;18.822;2023-03-21T02:47:57;17.10;;;9.55;;
70165;SDS011;57541;47.408;18.822;2023-03-21T02:48:35;14.73;;;9.65;;
70165;SDS011;57541;47.408;18.822;2023-03-21T02:49:55;14.63;;;9.80;;
70165;SDS011;57541;47.408;18.822;2023-03-21T02:50:42;15.82;;;9.60;;
70165;SDS011;57541;47.408;18.822;2023-03-21T02:51:21;15.07;;;9.02;;
70165;SDS011;57541;47.408;18.822;2023-03-21T02:51:54;17.42;;;10.00;;
70165;SDS011;57541;47.408;18.822;2023-03-21T02:52:45;15.90;;;9.27;;
70165;SDS011;57541;47.408;18.822;2023-03-21T02:53:19;14.93;;;8.95;;
70165;SDS011;57541;47.408;18.822;2023-03-21T02:53:56;15.48;;;9.65;;
70165;SDS011;57541;47.408;18.822;2023-03-21T02:54:51;14.98;;;9.32;;
70165;SDS011;57541;47.408;18.822;2023-03-21T02:55:25;14.52;;;9.60;;
70165;SDS011;57541;47.408;18.822;2023-03-21T02:56:00;15.27;;;9.60;;
70165;SDS011;57541;47.408;18.822;2023-03-21T02:56:32;15.25;;;9.30;;
70165;SDS011;57541;47.408;18.822;2023-03-21T02:57:07;17.00;;;9.95;;
70165;SDS011;57541;47.408;18.822;2023-03-21T02:57:40;15.30;;;9.55;;
70165;SDS011;57541;47.408;18.822;2023-03-21T02:58:15;14.55;;;10.40;;
70165;SDS011;57541;47.408;18.822;2023-03-21T02:58:50;15.90;;;9.40;;
70165;SDS011;57541;47.408;18.822;2023-03-21T02:59:23;15.52;;;9.90;;
70165;SDS011;57541;47.408;18.822;2023-03-21T02:59:57;15.88;;;9.35;;
70165;SDS011;57541;47.408;18.822;2023-03-21T03:00:44;15.05;;;9.73;;
70165;SDS011;57541;47.408;18.822;2023-03-21T03:01:17;15.48;;;10.15;;
70165;SDS011;57541;47.408;18.822;2023-03-21T03:01:50;14.50;;;9.18;;
70165;SDS011;57541;47.408;18.822;2023-03-21T03:02:25;16.05;;;10.10;;
70165;SDS011;57541;47.408;18.822;2023-03-21T03:02:58;16.42;;;9.77;;
70165;SDS011;57541;47.408;18.822;2023-03-21T03:03:40;16.42;;;9.50;;
70165;SDS011;57541;47.408;18.822;2023-03-21T03:04:23;16.10;;;9.70;;
70165;SDS011;57541;47.408;18.822;2023-03-21T03:04:59;18.08;;;10.77;;
70165;SDS011;57541;47.408;18.822;2023-03-21T03:05:32;16.25;;;9.90;;
70165;SDS011;57541;47.408;18.822;2023-03-21T03:06:18;16.75;;;10.63;;
70165;SDS011;57541;47.408;18.822;2023-03-21T03:07:50;16.50;;;10.18;;
70165;SDS011;57541;47.408;18.822;2023-03-21T03:09:38;16.25;;;9.27;;
70165;SDS011;57541;47.408;18.822;2023-03-21T03:11:23;17.55;;;10.35;;
70165;SDS011;57541;47.408;18.822;2023-03-21T03:12:02;15.07;;;9.00;;
70165;SDS011;57541;47.408;18.822;2023-03-21T03:14:30;16.08;;;9.68;;
70165;SDS011;57541;47.408;18.822;2023-03-21T03:14:40;14.15;;;9.20;;
70165;SDS011;57541;47.408;18.822;2023-03-21T03:15:46;14.88;;;8.68;;
70165;SDS011;57541;47.408;18.822;2023-03-21T03:16:37;16.65;;;9.57;;
70165;SDS011;57541;47.408;18.822;2023-03-21T03:18:24;15.05;;;9.48;;
70165;SDS011;57541;47.408;18.822;2023-03-21T03:19:25;16.73;;;9.30;;
70165;SDS011;57541;47.408;18.822;2023-03-21T03:21:17;15.68;;;9.65;;
70165;SDS011;57541;47.408;18.822;2023-03-21T03:22:00;16.65;;;9.35;;
70165;SDS011;57541;47.408;18.822;2023-03-21T03:22:38;15.90;;;9.57;;
70165;SDS011;57541;47.408;18.822;2023-03-21T03:23:18;18.10;;;10.27;;
70165;SDS011;57541;47.408;18.822;2023-03-21T03:24:58;16.63;;;9.55;;
70165;SDS011;57541;47.408;18.822;2023-03-21T03:25:59;15.38;;;8.95;;
70165;SDS011;57541;47.408;18.822;2023-03-21T03:26:40;15.50;;;9.50;;
70165;SDS011;57541;47.408;18.822;2023-03-21T03:27:25;18.63;;;10.73;;
70165;SDS011;57541;47.408;18.822;2023-03-21T03:28:02;16.52;;;10.13;;
70165;SDS011;57541;47.408;18.822;2023-03-21T03:28:40;16.45;;;10.18;;
70165;SDS011;57541;47.408;18.822;2023-03-21T03:29:16;16.30;;;10.77;;
70165;SDS011;57541;47.408;18.822;2023-03-21T03:29:49;18.63;;;10.93;;
70165;SDS011;57541;47.408;18.822;2023-03-21T03:30:22;17.02;;;10.63;;
70165;SDS011;57541;47.408;18.822;2023-03-21T03:31:10;15.13;;;10.27;;
70165;SDS011;57541;47.408;18.822;2023-03-21T03:31:53;16.50;;;10.48;;
70165;SDS011;57541;47.408;18.822;2023-03-21T03:32:49;16.98;;;10.68;;
70165;SDS011;57541;47.408;18.822;2023-03-21T03:33:25;18.55;;;10.23;;
70165;SDS011;57541;47.408;18.822;2023-03-21T03:34:04;17.08;;;10.63;;
70165;SDS011;57541;47.408;18.822;2023-03-21T03:34:41;18.20;;;10.40;;
70165;SDS011;57541;47.408;18.822;2023-03-21T03:35:19;16.77;;;10.00;;
70165;SDS011;57541;47.408;18.822;2023-03-21T03:35:53;16.52;;;10.57;;
70165;SDS011;57541;47.408;18.822;2023-03-21T03:36:38;16.00;;;10.05;;
70165;SDS011;57541;47.408;18.822;2023-03-21T03:37:13;17.85;;;9.75;;
70165;SDS011;57541;47.408;18.822;2023-03-21T03:37:52;17.50;;;10.35;;
70165;SDS011;57541;47.408;18.822;2023-03-21T03:38:26;17.75;;;10.40;;
70165;SDS011;57541;47.408;18.822;2023-03-21T03:39:01;17.48;;;10.75;;
70165;SDS011;57541;47.408;18.822;2023-03-21T03:40:39;16.40;;;10.45;;
70165;SDS011;57541;47.408;18.822;2023-03-21T03:41:16;17.42;;;10.80;;
70165;SDS011;57541;47.408;18.822;2023-03-21T03:41:59;17.63;;;10.70;;
70165;SDS011;57541;47.408;18.822;2023-03-21T03:42:59;18.40;;;10.05;;
70165;SDS011;57541;47.408;18.822;2023-03-21T03:43:46;15.90;;;10.18;;
70165;SDS011;57541;47.408;18.822;2023-03-21T03:44:21;18.50;;;9.80;;
70165;SDS011;57541;47.408;18.822;2023-03-21T03:44:53;19.15;;;10.30;;
70165;SDS011;57541;47.408;18.822;2023-03-21T03:45:27;16.73;;;10.80;;
70165;SDS011;57541;47.408;18.822;2023-03-21T03:46:07;16.20;;;9.98;;
70165;SDS011;57541;47.408;18.822;2023-03-21T03:47:33;15.82;;;9.98;;
70165;SDS011;57541;47.408;18.822;2023-03-21T03:48:39;16.35;;;10.07;;
70165;SDS011;57541;47.408;18.822;2023-03-21T03:49:18;16.67;;;9.98;;
70165;SDS011;57541;47.408;18.822;2023-03-21T03:50:48;15.80;;;9.82;;
70165;SDS011;57541;47.408;18.822;2023-03-21T03:51:28;16.45;;;9.90;;
70165;SDS011;57541;47.408;18.822;2023-03-21T03:52:21;19.30;;;10.13;;
70165;SDS011;57541;47.408;18.822;2023-03-21T03:53:50;15.07;;;10.02;;
70165;SDS011;57541;47.408;18.822;2023-03-21T03:54:28;17.52;;;10.55;;
70165;SDS011;57541;47.408;18.822;2023-03-21T03:55:03;17.05;;;10.38;;
70165;SDS011;57541;47.408;18.822;2023-03-21T03:55:36;15.43;;;9.52;;
70165;SDS011;57541;47.408;18.822;2023-03-21T03:56:09;16.33;;;10.60;;
70165;SDS011;57541;47.408;18.822;2023-03-21T03:56:42;16.20;;;10.35;;
70165;SDS011;57541;47.408;18.822;2023-03-21T03:57:14;16.75;;;10.32;;
70165;SDS011;57541;47.408;18.822;2023-03-21T03:57:47;15.48;;;10.15;;
70165;SDS011;57541;47.408;18.822;2023-03-21T03:58:19;17.20;;;10.60;;
70165;SDS011;57541;47.408;18.822;2023-03-21T03:58:57;17.27;;;10.43;;
70165;SDS011;57541;47.408;18.822;2023-03-21T03:59:35;15.98;;;9.60;;
70165;SDS011;57541;47.408;18.822;2023-03-21T04:00:09;16.38;;;10.38;;
70165;SDS011;57541;47.408;18.822;2023-03-21T04:00:43;15.85;;;10.00;;
70165;SDS011;57541;47.408;18.822;2023-03-21T04:01:15;15.48;;;10.35;;
70165;SDS011;57541;47.408;18.822;2023-03-21T04:01:48;16.80;;;9.85;;
70165;SDS011;57541;47.408;18.822;2023-03-21T04:02:20;17.02;;;10.48;;
70165;SDS011;57541;47.408;18.822;2023-03-21T04:02:52;15.43;;;10.18;;
70165;SDS011;57541;47.408;18.822;2023-03-21T04:03:24;16.20;;;10.65;;
70165;SDS011;57541;47.408;18.822;2023-03-21T04:03:56;17.02;;;10.35;;
70165;SDS011;57541;47.408;18.822;2023-03-21T04:04:43;17.67;;;10.77;;
70165;SDS011;57541;47.408;18.822;2023-03-21T04:05:15;16.80;;;10.50;;
70165;SDS011;57541;47.408;18.822;2023-03-21T04:05:51;17.25;;;10.52;;
70165;SDS011;57541;47.408;18.822;2023-03-21T04:06:24;15.55;;;10.52;;
70165;SDS011;57541;47.408;18.822;2023-03-21T04:06:59;19.67;;;11.50;;
70165;SDS011;57541;47.408;18.822;2023-03-21T04:07:30;18.27;;;10.88;;
70165;SDS011;57541;47.408;18.822;2023-03-21T04:08:02;16.27;;;10.35;;